Time;durP1;ratioP1;P1;durP2;ratioP2;P2;SDS_P1;SDS_P2;PMS_P1;PMS_P2;Temp;Humidity;BMP_temperature;BMP_pressure;BME280_temperature;BME280_humidity;BME280_pressure;Samples;Min_cycle;Max_cycle;Signal;HPM_P1;HPM_P2
2023/04/02 00:00:32;;;;;;;0.97;0.30;;;;;;;10.73;100.00;94447.13;5132828;27;20525;-58
2023/04/02 00:03:02;;;;;;;0.40;0.30;;;;;;;10.06;100.00;94434.38;5132831;27;20435;-58
2023/04/02 00:05:50;;;;;;;0.87;0.70;;;;;;;9.47;100.00;94445.47;5133166;27;20435;-58
2023/04/02 00:08:22;;;;;;;1.00;0.97;;;;;;;9.30;100.00;94442.50;5132871;27;20526;-58
2023/04/02 00:10:55;;;;;;;0.43;0.40;;;;;;;9.51;100.00;94446.50;5106384;27;20943;-58
2023/04/02 00:13:33;;;;;;;0.40;0.30;;;;;;;10.17;100.00;94433.97;5132794;27;20466;-58
2023/04/02 00:16:05;;;;;;;0.90;0.70;;;;;;;10.47;100.00;94445.97;5133402;27;20466;-58
2023/04/02 00:18:37;;;;;;;0.90;0.90;;;;;;;9.81;100.00;94445.31;5132691;27;20431;-57
2023/04/02 00:21:13;;;;;;;0.50;0.30;;;;;;;10.18;100.00;94424.97;5132811;27;20521;-58
2023/04/02 00:23:43;;;;;;;0.30;0.30;;;;;;;10.43;100.00;94444.16;5131198;27;20556;-57
2023/04/02 00:26:28;;;;;;;0.30;0.30;;;;;;;10.70;100.00;94445.03;5132594;27;20431;-58
2023/04/02 00:28:58;;;;;;;1.13;1.03;;;;;;;9.63;100.00;94454.81;5109330;27;20442;-58
2023/04/02 00:31:26;;;;;;;0.60;0.40;;;;;;;9.20;100.00;94464.56;5118618;27;20522;-58
2023/04/02 00:33:55;;;;;;;1.27;0.50;;;;;;;8.79;100.00;94461.53;5132072;27;20438;-58
2023/04/02 00:36:28;;;;;;;0.40;0.30;;;;;;;8.98;100.00;94455.56;5132419;27;21078;-57
2023/04/02 00:38:59;;;;;;;0.30;0.20;;;;;;;9.45;100.00;94469.56;5132002;28;20529;-57
2023/04/02 00:41:35;;;;;;;0.50;0.50;;;;;;;9.75;100.00;94462.31;5132965;27;20533;-58
2023/04/02 00:44:04;;;;;;;0.60;0.60;;;;;;;9.97;100.00;94467.84;5132898;28;20526;-57
2023/04/02 00:46:46;;;;;;;0.30;0.20;;;;;;;9.99;100.00;94466.50;5106595;28;20431;-57
2023/04/02 00:49:26;;;;;;;0.50;0.40;;;;;;;10.29;100.00;94469.81;5132284;28;20796;-58
2023/04/02 00:51:58;;;;;;;0.40;0.30;;;;;;;10.37;100.00;94463.88;5131688;28;20469;-57
2023/04/02 00:54:31;;;;;;;0.40;0.30;;;;;;;9.63;100.00;94443.44;5131890;28;20530;-57
2023/04/02 00:57:02;;;;;;;0.40;0.30;;;;;;;9.91;100.00;94464.50;5131894;27;20969;-57
2023/04/02 00:59:33;;;;;;;0.40;0.30;;;;;;;9.87;100.00;94466.13;5105244;28;20487;-57
2023/04/02 01:02:25;;;;;;;0.30;0.20;;;;;;;9.56;100.00;94401.47;5131981;28;20527;-57
2023/04/02 01:04:55;;;;;;;0.40;0.30;;;;;;;10.20;100.00;94459.88;5131681;27;20973;-57
2023/04/02 01:07:45;;;;;;;0.40;0.30;;;;;;;10.01;100.00;94455.63;5131247;27;20507;-57
2023/04/02 01:10:30;;;;;;;0.40;0.40;;;;;;;9.50;100.00;94421.13;5134809;27;20478;-57
2023/04/02 01:13:11;;;;;;;0.30;0.20;;;;;;;10.11;100.00;94450.19;5136029;27;20441;-57
2023/04/02 01:15:44;;;;;;;0.40;0.30;;;;;;;10.10;100.00;94473.22;5136234;27;20543;-57
2023/04/02 01:18:25;;;;;;;0.40;0.40;;;;;;;9.91;100.00;94471.66;5135161;27;20478;-57
2023/04/02 01:21:27;;;;;;;0.60;0.60;;;;;;;9.66;100.00;94466.69;5136111;27;20442;-57
2023/04/02 01:24:02;;;;;;;0.77;0.77;;;;;;;9.65;100.00;94465.09;5110217;27;20470;-57
2023/04/02 01:26:49;;;;;;;0.40;0.30;;;;;;;9.91;100.00;94439.91;5135755;27;20529;-57
2023/04/02 01:29:22;;;;;;;1.20;1.20;;;;;;;9.69;100.00;94468.78;5136079;27;20473;-57
2023/04/02 01:31:53;;;;;;;0.60;0.60;;;;;;;9.34;100.00;94468.09;5135606;27;20935;-57
2023/04/02 01:34:26;;;;;;;0.40;0.40;;;;;;;9.61;100.00;94464.91;5135530;27;20439;-57
2023/04/02 01:37:06;;;;;;;0.40;0.30;;;;;;;9.78;100.00;94467.84;5110074;27;20480;-57
2023/04/02 01:39:47;;;;;;;0.30;0.20;;;;;;;9.42;100.00;94469.34;5136020;27;21046;-57
2023/04/02 01:42:22;;;;;;;0.60;0.60;;;;;;;9.89;100.00;94458.69;5135623;27;20488;-57
2023/04/02 01:44:53;;;;;;;0.40;0.30;;;;;;;9.62;100.00;94465.66;5134916;27;20440;-57
2023/04/02 01:47:27;;;;;;;0.40;0.30;;;;;;;10.20;100.00;94462.53;5135650;27;20450;-57
2023/04/02 01:50:01;;;;;;;0.30;0.20;;;;;;;10.35;100.00;94435.03;5135454;27;20490;-57
2023/04/02 01:52:38;;;;;;;0.30;0.20;;;;;;;10.52;100.00;94453.84;5121426;27;20821;-57
2023/04/02 01:55:08;;;;;;;0.40;0.30;;;;;;;10.56;100.00;94443.44;5134904;27;20813;-57
2023/04/02 01:57:36;;;;;;;0.80;0.80;;;;;;;9.90;100.00;94454.97;5135111;27;20477;-57
2023/04/02 02:00:11;;;;;;;0.90;0.83;;;;;;;9.98;100.00;94451.69;5129606;27;20446;-57
2023/04/02 02:02:42;;;;;;;0.40;0.40;;;;;;;9.97;100.00;94451.97;5134368;27;20482;-57
2023/04/02 02:05:13;;;;;;;0.93;0.93;;;;;;;9.91;100.00;94427.44;5135005;27;20434;-57
2023/04/02 02:07:42;;;;;;;1.13;0.43;;;;;;;10.13;100.00;94440.13;5135368;27;20851;-57
2023/04/02 02:10:15;;;;;;;0.50;0.30;;;;;;;9.81;100.00;94446.13;5135014;27;20537;-57
2023/04/02 02:12:45;;;;;;;0.37;0.30;;;;;;;9.99;100.00;94426.03;5135583;27;20522;-58
2023/04/02 02:15:18;;;;;;;1.00;0.90;;;;;;;9.63;100.00;94448.72;5134868;27;20449;-57
2023/04/02 02:17:48;;;;;;;0.40;0.37;;;;;;;9.91;100.00;94455.78;5135034;27;20474;-57
2023/04/02 02:20:17;;;;;;;0.40;0.30;;;;;;;10.14;100.00;94442.47;5134223;27;20597;-57
2023/04/02 02:22:48;;;;;;;0.30;0.20;;;;;;;10.22;100.00;94442.94;5134399;27;20441;-57
2023/04/02 02:25:20;;;;;;;0.30;0.20;;;;;;;10.46;99.13;94443.59;5135180;27;20539;-58
2023/04/02 02:27:59;;;;;;;0.50;0.40;;;;;;;9.80;100.00;94391.59;5134573;27;20431;-58
2023/04/02 02:30:33;;;;;;;0.30;0.30;;;;;;;10.14;97.84;94434.53;5110387;27;20998;-58
2023/04/02 02:33:06;;;;;;;2.10;0.97;;;;;;;10.14;95.62;94434.53;5134402;27;20478;-58
2023/04/02 02:35:40;;;;;;;0.30;0.20;;;;;;;9.88;100.00;94451.84;5134667;27;20442;-58
2023/04/02 02:38:48;;;;;;;0.40;0.20;;;;;;;9.49;100.00;94443.34;5134412;27;20470;-58
2023/04/02 02:41:23;;;;;;;0.57;0.57;;;;;;;9.93;100.00;94446.47;5115330;27;20438;-58
2023/04/02 02:43:59;;;;;;;1.23;0.30;;;;;;;10.18;98.64;94424.16;5134469;27;20512;-58
2023/04/02 02:46:32;;;;;;;0.30;0.20;;;;;;;10.14;96.80;94450.41;5133974;27;20525;-58
2023/04/02 02:49:04;;;;;;;3.00;0.30;;;;;;;9.40;100.00;94445.84;5134175;27;20449;-58
2023/04/02 02:51:40;;;;;;;0.30;0.20;;;;;;;8.97;100.00;94475.09;5134606;27;20500;-58
2023/04/02 02:54:09;;;;;;;0.60;0.57;;;;;;;9.45;100.00;94464.28;5133972;27;20987;-58
2023/04/02 02:56:46;;;;;;;0.30;0.20;;;;;;;9.77;100.00;94465.47;5134520;27;20518;-59
2023/04/02 02:59:16;;;;;;;0.60;0.60;;;;;;;9.23;100.00;94476.44;5133577;27;20824;-58
2023/04/02 03:01:47;;;;;;;0.40;0.30;;;;;;;9.14;100.00;94472.81;5133437;27;21039;-58
2023/04/02 03:04:21;;;;;;;0.63;0.63;;;;;;;9.16;100.00;94466.19;5133440;27;20496;-58
2023/04/02 03:06:52;;;;;;;0.50;0.47;;;;;;;9.08;100.00;94463.38;5133358;27;20438;-58
2023/04/02 03:09:30;;;;;;;0.40;0.30;;;;;;;8.93;100.00;94428.09;5133607;27;20441;-58
2023/04/02 03:12:07;;;;;;;0.40;0.30;;;;;;;9.26;100.00;94483.81;5133710;27;20426;-58
2023/04/02 03:14:41;;;;;;;0.30;0.20;;;;;;;9.44;100.00;94465.34;5133795;27;20424;-58
2023/04/02 03:17:17;;;;;;;0.43;0.37;;;;;;;9.50;100.00;94479.31;5132929;27;20469;-58
2023/04/02 03:19:52;;;;;;;0.40;0.30;;;;;;;9.29;100.00;94485.88;5133488;27;20802;-57
2023/04/02 03:22:26;;;;;;;0.50;0.30;;;;;;;9.15;100.00;94437.41;5133376;27;20442;-58
2023/04/02 03:25:00;;;;;;;0.40;0.27;;;;;;;9.25;100.00;94487.50;5132626;27;20903;-58
2023/04/02 03:27:34;;;;;;;8.10;1.30;;;;;;;8.59;100.00;94498.69;5133519;27;20541;-58
2023/04/02 03:30:14;;;;;;;0.97;0.97;;;;;;;8.63;100.00;94491.00;5132786;27;20503;-57
2023/04/02 03:32:46;;;;;;;0.57;0.57;;;;;;;8.43;100.00;94499.06;5132115;27;20438;-57
2023/04/02 03:35:22;;;;;;;0.60;0.60;;;;;;;8.00;100.00;94498.00;5133527;27;20441;-58
2023/04/02 03:37:55;;;;;;;0.80;0.77;;;;;;;7.74;100.00;94444.59;5132893;27;20480;-58
2023/04/02 03:40:28;;;;;;;0.40;0.30;;;;;;;8.00;100.00;94496.16;5133249;27;20430;-57
2023/04/02 03:43:03;;;;;;;0.40;0.30;;;;;;;8.49;100.00;94519.09;5132759;27;20444;-57
2023/04/02 03:45:36;;;;;;;0.57;0.40;;;;;;;8.70;100.00;94515.25;5133248;27;20442;-57
2023/04/02 03:48:12;;;;;;;0.50;0.50;;;;;;;8.29;100.00;94520.81;5133267;27;20430;-58
2023/04/02 03:50:46;;;;;;;0.40;0.30;;;;;;;8.43;100.00;94514.91;5133201;27;20529;-57
2023/04/02 03:53:15;;;;;;;1.13;0.57;;;;;;;8.36;100.00;94482.75;5133151;27;20525;-57
2023/04/02 03:55:43;;;;;;;0.40;0.33;;;;;;;8.59;100.00;94527.75;5132979;27;20964;-57
2023/04/02 03:58:17;;;;;;;0.40;0.30;;;;;;;8.64;100.00;94530.34;5132688;27;20478;-57
2023/04/02 04:00:52;;;;;;;0.40;0.30;;;;;;;8.72;100.00;94528.97;5132484;27;20429;-57
2023/04/02 04:03:26;;;;;;;0.40;0.33;;;;;;;9.03;100.00;94535.59;5132682;27;20436;-56
2023/04/02 04:06:00;;;;;;;0.70;0.70;;;;;;;8.37;100.00;94521.31;5133013;27;20446;-56
2023/04/02 04:08:36;;;;;;;1.03;1.03;;;;;;;8.03;100.00;94529.91;5131344;27;20804;-56
2023/04/02 04:11:10;;;;;;;0.57;0.57;;;;;;;8.10;100.00;94505.84;5132506;27;20476;-56
2023/04/02 04:13:44;;;;;;;0.50;0.47;;;;;;;8.76;100.00;94530.78;5131897;27;20444;-56
2023/04/02 04:16:17;;;;;;;0.50;0.40;;;;;;;9.03;100.00;94532.16;5132389;27;20473;-56
2023/04/02 04:18:55;;;;;;;0.60;0.60;;;;;;;9.39;100.00;94530.72;5132570;27;20970;-56
2023/04/02 04:21:35;;;;;;;0.40;0.30;;;;;;;9.38;100.00;94537.88;5132513;27;20970;-56
2023/04/02 04:24:07;;;;;;;0.40;0.30;;;;;;;9.46;100.00;94539.13;5132447;27;20529;-56
2023/04/02 04:26:42;;;;;;;2.13;2.03;;;;;;;9.05;100.00;94495.66;5131902;27;20812;-56
2023/04/02 04:29:25;;;;;;;1.47;0.67;;;;;;;9.08;100.00;94495.09;5131598;27;20444;-60
2023/04/02 04:31:54;;;;;;;1.37;1.13;;;;;;;9.51;100.00;94547.78;5132243;27;20442;-56
2023/04/02 04:34:30;;;;;;;0.50;0.40;;;;;;;9.71;100.00;94541.50;5132008;27;20438;-56
2023/04/02 04:37:01;;;;;;;0.30;0.30;;;;;;;9.53;100.00;94539.59;5132688;27;20492;-56
2023/04/02 04:39:40;;;;;;;0.50;0.50;;;;;;;9.61;100.00;94549.56;5132039;28;20506;-56
2023/04/02 04:42:17;;;;;;;14.93;1.20;;;;;;;10.00;100.00;94542.19;5132053;28;20518;-56
2023/04/02 04:44:53;;;;;;;0.40;0.40;;;;;;;10.21;100.00;94545.41;5131213;27;20479;-57
2023/04/02 04:47:27;;;;;;;0.70;0.70;;;;;;;10.23;99.46;94558.34;5131815;28;20473;-57
2023/04/02 04:50:02;;;;;;;7.73;0.70;;;;;;;10.24;99.60;94565.22;5131978;28;21015;-56
2023/04/02 04:52:36;;;;;;;1.07;0.80;;;;;;;10.34;97.73;94557.94;5132179;28;20765;-56
2023/04/02 04:55:24;;;;;;;1.07;0.97;;;;;;;10.49;96.61;94557.72;5131287;28;20530;-56
2023/04/02 04:57:59;;;;;;;2.50;0.70;;;;;;;10.44;96.75;94567.59;5104959;28;20839;-56
2023/04/02 05:00:43;;;;;;;0.67;0.67;;;;;;;10.32;98.14;94565.41;5131435;27;20441;-56
2023/04/02 05:03:19;;;;;;;1.07;1.07;;;;;;;9.66;100.00;94570.66;5132255;28;20438;-57
2023/04/02 05:05:49;;;;;;;0.80;0.80;;;;;;;9.58;100.00;94564.13;5132128;28;21039;-56
2023/04/02 05:08:22;;;;;;;0.60;0.50;;;;;;;9.01;100.00;94579.19;5132061;28;21013;-56
2023/04/02 05:10:55;;;;;;;0.50;0.50;;;;;;;8.88;100.00;94577.97;5104536;28;20434;-56
2023/04/02 05:13:30;;;;;;;0.40;0.30;;;;;;;8.69;100.00;94571.78;5131662;28;20442;-56
2023/04/02 05:16:13;;;;;;;0.90;0.90;;;;;;;8.84;100.00;94588.31;5132055;28;20946;-56
2023/04/02 05:18:46;;;;;;;0.50;0.30;;;;;;;9.22;100.00;94581.41;5131821;28;21001;-57
2023/04/02 05:21:22;;;;;;;23.97;9.07;;;;;;;9.31;100.00;94589.53;5131234;28;20454;-60
2023/04/02 05:23:56;;;;;;;9.40;8.57;;;;;;;10.06;100.00;94595.88;5131656;28;20573;-60
2023/04/02 05:26:30;;;;;;;20.57;13.90;;;;;;;10.20;100.00;94602.88;5131699;28;20539;-59
2023/04/02 05:29:06;;;;;;;31.07;14.43;;;;;;;10.48;100.00;94603.03;5132007;28;20470;-59
2023/04/02 05:31:42;;;;;;;37.60;19.80;;;;;;;11.03;100.00;94581.03;5131961;28;20437;-59
2023/04/02 05:34:12;;;;;;;17.17;11.00;;;;;;;10.55;98.32;94603.50;5131963;28;20442;-56
2023/04/02 05:36:47;;;;;;;7.00;4.00;;;;;;;10.83;100.00;94610.50;5131480;27;20525;-56
2023/04/02 05:39:22;;;;;;;8.50;4.63;;;;;;;10.83;98.48;94592.72;5131403;28;20470;-57
2023/04/02 05:41:59;;;;;;;3.57;2.57;;;;;;;10.77;97.65;94598.41;5131950;28;20439;-56
2023/04/02 05:44:30;;;;;;;2.50;2.03;;;;;;;10.38;97.84;94588.06;5131799;28;20439;-56
2023/04/02 05:47:03;;;;;;;2.67;2.57;;;;;;;10.54;97.93;94605.34;5131618;28;20469;-56
2023/04/02 05:49:40;;;;;;;1.73;1.63;;;;;;;10.27;99.69;94615.00;5131865;27;20438;-56
2023/04/02 05:52:16;;;;;;;17.83;2.57;;;;;;;10.35;100.00;94623.06;5131753;27;20438;-56
2023/04/02 05:54:49;;;;;;;2.20;1.90;;;;;;;10.56;100.00;94620.94;5106716;27;20438;-56
2023/04/02 05:57:21;;;;;;;9.37;1.17;;;;;;;11.45;100.00;94609.25;5134517;27;20534;-55
2023/04/02 06:00:14;;;;;;;2.20;2.10;;;;;;;12.10;94.74;94617.91;5135063;27;20567;-55
2023/04/02 06:02:51;;;;;;;2.20;1.07;;;;;;;12.33;92.06;94614.28;5134751;27;20442;-55
2023/04/02 06:05:24;;;;;;;6.60;1.43;;;;;;;12.51;86.10;94600.09;5134688;27;20435;-55
2023/04/02 06:07:58;;;;;;;0.50;0.50;;;;;;;12.93;84.03;94600.78;5135220;27;20441;-55
2023/04/02 06:10:31;;;;;;;0.60;0.60;;;;;;;12.77;84.99;94606.41;5134518;27;20434;-56
2023/04/02 06:13:06;;;;;;;0.77;0.60;;;;;;;12.46;83.20;94616.13;5134772;27;20949;-56
2023/04/02 06:15:37;;;;;;;0.93;0.93;;;;;;;12.65;83.57;94611.47;5135145;27;20526;-56
2023/04/02 06:18:08;;;;;;;0.77;0.77;;;;;;;12.66;82.50;94610.41;5135406;27;20802;-56
2023/04/02 06:20:37;;;;;;;2.07;1.97;;;;;;;11.66;87.28;94618.47;5134832;27;20435;-55
2023/04/02 06:23:13;;;;;;;1.33;1.23;;;;;;;11.64;90.56;94614.53;5134802;27;20474;-55
2023/04/02 06:25:45;;;;;;;0.90;0.90;;;;;;;11.45;91.66;94623.31;5134463;27;20442;-55
2023/04/02 06:28:17;;;;;;;3.77;1.23;;;;;;;11.04;94.40;94627.69;5134566;27;20439;-56
2023/04/02 06:30:46;;;;;;;0.63;0.63;;;;;;;10.76;97.81;94624.13;5134587;27;20475;-56
2023/04/02 06:33:15;;;;;;;1.00;1.00;;;;;;;10.74;100.00;94633.44;5134254;27;20470;-56
2023/04/02 06:35:45;;;;;;;0.87;0.37;;;;;;;11.23;97.81;94628.44;5134541;27;20439;-56
2023/04/02 06:38:20;;;;;;;0.50;0.47;;;;;;;11.51;95.06;94628.53;5134700;27;20480;-56
2023/04/02 06:40:52;;;;;;;1.60;1.50;;;;;;;11.37;93.44;94616.03;5133835;27;20477;-56
2023/04/02 06:43:31;;;;;;;1.07;0.30;;;;;;;11.77;90.87;94608.44;5134896;27;20431;-56
2023/04/02 06:46:06;;;;;;;0.87;0.83;;;;;;;12.05;88.68;94615.38;5132615;27;20442;-56
2023/04/02 06:48:37;;;;;;;0.57;0.57;;;;;;;11.92;92.95;94629.41;5131771;27;20439;-56
2023/04/02 06:51:09;;;;;;;0.60;0.50;;;;;;;11.95;89.51;94624.31;5131436;27;20500;-56
2023/04/02 06:53:42;;;;;;;0.40;0.40;;;;;;;12.59;91.64;94620.66;5132290;27;20471;-56
2023/04/02 06:56:21;;;;;;;0.63;0.40;;;;;;;12.64;85.78;94625.06;5131361;27;20439;-56
2023/04/02 06:58:49;;;;;;;0.60;0.60;;;;;;;12.46;87.70;94621.47;5131101;27;20952;-56
2023/04/02 07:01:23;;;;;;;1.37;1.37;;;;;;;12.37;86.62;94622.47;5131414;27;20458;-56
2023/04/02 07:03:52;;;;;;;0.60;0.60;;;;;;;12.24;89.92;94624.03;5130787;27;20441;-56
2023/04/02 07:06:21;;;;;;;1.23;1.13;;;;;;;12.53;88.35;94621.84;5131702;27;20435;-56
2023/04/02 07:08:51;;;;;;;0.97;0.97;;;;;;;12.55;87.16;94630.28;5131505;27;20586;-56
2023/04/02 07:11:22;;;;;;;1.17;0.93;;;;;;;12.32;90.48;94628.63;5132756;27;20435;-56
2023/04/02 07:13:50;;;;;;;0.87;0.87;;;;;;;12.10;92.80;94631.19;5133386;27;20434;-56
2023/04/02 07:16:24;;;;;;;0.87;0.87;;;;;;;12.34;93.50;94633.66;5133283;27;20546;-56
2023/04/02 07:18:54;;;;;;;1.07;0.80;;;;;;;12.44;91.53;94634.25;5133397;27;20911;-56
2023/04/02 07:21:22;;;;;;;5.47;0.53;;;;;;;12.76;91.24;94638.63;5134240;27;20534;-56
2023/04/02 07:23:52;;;;;;;2.13;1.97;;;;;;;13.07;88.00;94636.13;5133655;27;20557;-56
2023/04/02 07:26:24;;;;;;;0.60;0.47;;;;;;;13.89;83.87;94641.81;5133665;27;20447;-56
2023/04/02 07:28:52;;;;;;;0.70;0.70;;;;;;;13.58;83.58;94641.81;5133597;27;20817;-56
2023/04/02 07:31:23;;;;;;;1.87;0.77;;;;;;;13.62;84.48;94637.47;5133614;27;20435;-56
2023/04/02 07:33:52;;;;;;;1.73;1.63;;;;;;;13.58;83.38;94639.16;5124223;27;20436;-56
2023/04/02 07:36:22;;;;;;;0.60;0.60;;;;;;;13.15;83.24;94568.91;5129990;27;20431;-56
2023/04/02 07:38:53;;;;;;;0.50;0.47;;;;;;;13.89;82.39;94637.28;5133335;27;20435;-56
2023/04/02 07:41:22;;;;;;;1.77;1.03;;;;;;;14.49;79.54;94632.25;5133086;27;20523;-56
2023/04/02 07:43:50;;;;;;;0.50;0.50;;;;;;;15.11;76.64;94618.66;5133505;27;20495;-56
2023/04/02 07:46:19;;;;;;;1.70;1.60;;;;;;;15.40;76.85;94628.72;5133089;27;20470;-56
2023/04/02 07:48:47;;;;;;;0.93;0.93;;;;;;;15.72;74.65;94628.22;5133732;27;20591;-56
2023/04/02 07:51:18;;;;;;;1.07;1.07;;;;;;;16.12;74.13;94626.84;5133063;27;20439;-56
2023/04/02 07:53:48;;;;;;;1.30;1.20;;;;;;;16.30;71.65;94628.34;5133276;27;20798;-57
2023/04/02 07:56:20;;;;;;;1.80;1.70;;;;;;;16.71;72.12;94621.56;5133250;27;20523;-57
2023/04/02 07:58:48;;;;;;;2.93;1.10;;;;;;;16.38;71.34;94576.72;5132529;27;20472;-57
2023/04/02 08:01:19;;;;;;;0.70;0.70;;;;;;;16.77;68.03;94596.97;5132774;27;20567;-57
2023/04/02 08:03:48;;;;;;;1.13;1.03;;;;;;;17.20;63.93;94612.72;5132807;27;21014;-57
2023/04/02 08:06:18;;;;;;;0.70;0.70;;;;;;;16.82;62.35;94618.19;5132806;27;20431;-57
2023/04/02 08:08:47;;;;;;;0.83;0.50;;;;;;;17.19;61.57;94611.16;5132740;27;20478;-57
2023/04/02 08:11:15;;;;;;;1.30;0.87;;;;;;;16.62;62.29;94612.81;5132680;27;20797;-57
2023/04/02 08:13:46;;;;;;;0.97;0.97;;;;;;;17.32;61.58;94614.66;5132504;27;20431;-58
2023/04/02 08:16:15;;;;;;;0.63;0.60;;;;;;;17.39;59.71;94622.94;5132471;27;21135;-58
2023/04/02 08:18:46;;;;;;;3.17;2.10;;;;;;;17.39;57.83;94623.75;5131690;27;20438;-58
2023/04/02 08:21:14;;;;;;;3.37;1.27;;;;;;;17.82;60.09;94630.63;5132169;27;20569;-58
2023/04/02 08:23:43;;;;;;;0.97;0.97;;;;;;;18.44;57.83;94612.41;5131379;27;20483;-60
2023/04/02 08:26:17;;;;;;;1.23;0.90;;;;;;;18.97;56.05;94627.50;5132366;27;20788;-61
2023/04/02 08:28:47;;;;;;;0.87;0.57;;;;;;;18.37;56.05;94629.06;5106118;27;20456;-62
2023/04/02 08:31:15;;;;;;;0.63;0.53;;;;;;;18.72;54.34;94621.38;5132376;27;20454;-63
2023/04/02 08:33:44;;;;;;;0.97;0.87;;;;;;;18.37;51.22;94606.81;5132592;27;20821;-63
2023/04/02 08:36:16;;;;;;;0.80;0.80;;;;;;;18.98;50.27;94627.16;5132170;27;20518;-63
2023/04/02 08:38:45;;;;;;;0.50;0.43;;;;;;;18.93;48.65;94629.28;5132293;27;20964;-63
2023/04/02 08:41:23;;;;;;;0.50;0.30;;;;;;;19.71;47.72;94613.50;5131359;28;20491;-63
2023/04/02 08:44:22;;;;;;;0.40;0.40;;;;;;;19.08;48.18;94617.06;5131922;27;20430;-64
2023/04/02 08:46:55;;;;;;;0.67;0.67;;;;;;;18.61;49.16;94617.59;5109798;28;20535;-64
2023/04/02 08:49:30;;;;;;;0.53;0.40;;;;;;;19.24;46.01;94617.91;5132446;28;20466;-65
2023/04/02 08:51:59;;;;;;;0.40;0.30;;;;;;;20.37;47.08;94602.16;5132862;27;20434;-65
2023/04/02 08:54:30;;;;;;;0.50;0.40;;;;;;;19.03;47.58;94559.78;5132379;28;20491;-64
2023/04/02 08:57:04;;;;;;;4.43;0.40;;;;;;;19.08;48.15;94521.16;5132565;28;20438;-64
2023/04/02 08:59:36;;;;;;;0.97;0.97;;;;;;;21.38;44.31;94582.16;5132675;28;20816;-67
2023/04/02 09:02:26;;;;;;;0.60;0.40;;;;;;;22.04;41.55;94595.38;5131549;28;20495;-64
2023/04/02 09:04:57;;;;;;;0.40;0.20;;;;;;;22.12;40.28;94585.50;5132735;27;20538;-65
2023/04/02 09:07:27;;;;;;;0.37;0.20;;;;;;;22.31;40.29;94590.06;5132015;28;20476;-65
2023/04/02 09:09:57;;;;;;;0.50;0.33;;;;;;;20.80;39.23;94599.34;5132004;28;20435;-65
2023/04/02 09:12:28;;;;;;;0.40;0.30;;;;;;;20.29;40.19;94592.38;5132151;28;20431;-65
2023/04/02 09:15:11;;;;;;;0.40;0.30;;;;;;;21.67;41.20;94586.19;5132313;28;20931;-61
2023/04/02 09:17:40;;;;;;;1.17;1.07;;;;;;;21.79;38.71;94587.94;5132174;27;20442;-61
2023/04/02 09:20:25;;;;;;;0.40;0.30;;;;;;;20.45;41.93;94556.25;5131699;28;20462;-61
2023/04/02 09:22:55;;;;;;;1.70;0.30;;;;;;;20.40;41.90;94596.88;5132119;28;20435;-64
2023/04/02 09:25:26;;;;;;;0.60;0.30;;;;;;;20.79;42.35;94590.50;5132177;28;20435;-65
2023/04/02 09:27:57;;;;;;;0.40;0.37;;;;;;;19.87;42.03;94592.84;5131616;28;20926;-66
2023/04/02 09:30:41;;;;;;;0.40;0.30;;;;;;;20.59;40.67;94588.09;5134316;27;20547;-64
2023/04/02 09:33:10;;;;;;;0.40;0.40;;;;;;;21.00;40.90;94578.63;5135629;27;20433;-64
2023/04/02 09:35:55;;;;;;;0.40;0.33;;;;;;;21.26;40.25;94576.13;5135761;27;20434;-60
2023/04/02 09:38:27;;;;;;;0.40;0.30;;;;;;;23.25;38.40;94565.63;5135601;27;20992;-60
2023/04/02 09:41:00;;;;;;;0.50;0.50;;;;;;;23.80;37.76;94556.66;5134661;27;20849;-59
2023/04/02 09:43:30;;;;;;;0.40;0.30;;;;;;;22.58;36.70;94514.13;5135426;27;20487;-59
2023/04/02 09:46:06;;;;;;;0.63;0.30;;;;;;;23.54;35.92;94558.66;5135564;27;20438;-58
2023/04/02 09:48:38;;;;;;;0.53;0.40;;;;;;;23.85;34.42;94556.31;5135472;27;20867;-57
2023/04/02 09:51:13;;;;;;;0.50;0.50;;;;;;;24.58;34.95;94554.66;5135345;27;20442;-57
2023/04/02 09:53:43;;;;;;;0.40;0.30;;;;;;;24.87;34.88;94539.41;5135458;27;20458;-57
2023/04/02 09:56:20;;;;;;;0.40;0.30;;;;;;;25.17;34.89;94537.25;5135155;27;20947;-57
2023/04/02 09:59:03;;;;;;;0.40;0.30;;;;;;;24.44;32.27;94535.56;5135173;27;20542;-57
2023/04/02 10:01:34;;;;;;;0.40;0.30;;;;;;;24.70;32.51;94527.25;5135342;27;20477;-57
2023/04/02 10:04:04;;;;;;;0.30;0.20;;;;;;;23.80;33.18;94532.28;5135255;27;20494;-57
2023/04/02 10:06:34;;;;;;;0.40;0.30;;;;;;;24.66;33.03;94521.03;5135621;27;20770;-58
2023/04/02 10:09:21;;;;;;;0.50;0.30;;;;;;;25.94;30.39;94531.31;5134955;27;20922;-58
2023/04/02 10:11:51;;;;;;;0.40;0.30;;;;;;;25.51;30.97;94519.56;5134964;27;20620;-57
2023/04/02 10:14:24;;;;;;;0.50;0.30;;;;;;;27.34;30.85;94518.81;5134874;27;20441;-58
2023/04/02 10:16:57;;;;;;;0.93;0.43;;;;;;;24.98;30.80;94516.63;5134698;27;20940;-59
2023/04/02 10:19:32;;;;;;;1.10;1.10;;;;;;;24.55;32.01;94512.84;5134717;27;20435;-58
2023/04/02 10:22:05;;;;;;;2.67;0.30;;;;;;;26.15;33.21;94509.66;5134839;27;21066;-57
2023/04/02 10:24:33;;;;;;;0.30;0.30;;;;;;;25.89;30.10;94509.97;5134836;27;20466;-57
2023/04/02 10:27:16;;;;;;;0.30;0.20;;;;;;;27.83;29.67;94515.06;5134392;27;20463;-57
2023/04/02 10:30:09;;;;;;;0.40;0.30;;;;;;;28.16;30.56;94470.13;5134614;27;20438;-57
2023/04/02 10:32:45;;;;;;;0.37;0.30;;;;;;;25.68;30.11;94496.34;5131897;27;20939;-57
2023/04/02 10:35:23;;;;;;;0.40;0.40;;;;;;;26.33;30.78;94501.50;5108133;27;20438;-57
2023/04/02 10:38:15;;;;;;;0.60;0.40;;;;;;;26.45;28.82;94501.88;5134247;27;20430;-57
2023/04/02 10:40:48;;;;;;;0.40;0.27;;;;;;;26.16;28.64;94500.31;5134265;27;20488;-57
2023/04/02 10:43:43;;;;;;;0.40;0.37;;;;;;;25.63;29.94;94500.22;5134002;27;20430;-57
2023/04/02 10:46:19;;;;;;;0.30;0.20;;;;;;;27.77;28.01;94492.19;5134374;27;20435;-57
2023/04/02 10:49:01;;;;;;;0.30;0.20;;;;;;;28.95;28.74;94486.19;5133981;27;20470;-57
2023/04/02 10:51:39;;;;;;;0.30;0.20;;;;;;;28.70;28.21;94476.69;5108820;27;20514;-57
2023/04/02 10:54:26;;;;;;;0.40;0.30;;;;;;;28.69;27.00;94484.09;5134404;27;20445;-57
2023/04/02 10:57:00;;;;;;;0.40;0.40;;;;;;;26.61;28.21;94477.03;5134602;27;20822;-57
2023/04/02 10:59:32;;;;;;;0.30;0.30;;;;;;;26.87;27.71;94481.25;5120636;27;20554;-57
2023/04/02 11:02:04;;;;;;;0.50;0.50;;;;;;;27.36;26.84;94478.38;5133798;27;20519;-57
2023/04/02 11:04:42;;;;;;;0.30;0.30;;;;;;;28.42;27.57;94466.81;5134543;27;20431;-56
2023/04/02 11:07:17;;;;;;;0.30;0.30;;;;;;;29.01;27.42;94461.97;5133668;27;20873;-57
2023/04/02 11:09:49;;;;;;;0.30;0.20;;;;;;;28.05;27.79;94459.34;5133728;27;20438;-56
2023/04/02 11:12:23;;;;;;;0.40;0.30;;;;;;;27.49;29.21;94460.44;5133839;27;20931;-57
2023/04/02 11:14:54;;;;;;;0.40;0.30;;;;;;;28.02;28.49;94392.03;5134206;27;20474;-57
2023/04/02 11:17:23;;;;;;;0.30;0.20;;;;;;;28.58;27.92;94447.19;5107314;27;20435;-56
2023/04/02 11:19:54;;;;;;;0.40;0.30;;;;;;;28.05;25.49;94447.66;5133297;27;20435;-56
2023/04/02 11:22:24;;;;;;;0.50;0.30;;;;;;;28.27;27.58;94443.56;5133859;27;20506;-57
2023/04/02 11:24:54;;;;;;;0.40;0.40;;;;;;;28.14;25.57;94435.13;5133381;27;20558;-57
2023/04/02 11:27:26;;;;;;;0.30;0.20;;;;;;;28.41;25.18;94439.97;5134011;27;20437;-57
2023/04/02 11:30:03;;;;;;;0.40;0.30;;;;;;;27.73;26.77;94429.56;5133830;27;20858;-57
2023/04/02 11:32:39;;;;;;;0.40;0.30;;;;;;;27.33;27.89;94432.88;5133462;27;20927;-57
2023/04/02 11:35:43;;;;;;;0.30;0.20;;;;;;;27.85;25.85;94427.53;5133333;27;20947;-56
2023/04/02 11:38:51;;;;;;;0.30;0.20;;;;;;;28.24;26.34;94428.03;5133057;27;20438;-56
2023/04/02 11:42:03;;;;;;;0.40;0.30;;;;;;;28.70;26.19;94417.47;5133436;27;20784;-57
2023/04/02 11:44:32;;;;;;;0.40;0.30;;;;;;;29.44;23.81;94416.59;5124302;27;20553;-57
2023/04/02 11:47:16;;;;;;;0.33;0.30;;;;;;;30.03;25.35;94407.97;5133160;27;20525;-56
2023/04/02 11:50:01;;;;;;;0.30;0.30;;;;;;;29.39;27.09;94414.34;5131691;27;20453;-56
2023/04/02 11:52:34;;;;;;;0.40;0.40;;;;;;;28.50;24.94;94410.25;5132936;27;20496;-57
2023/04/02 11:55:34;;;;;;;0.30;0.20;;;;;;;27.42;25.12;94410.72;5133068;27;20517;-58
2023/04/02 11:58:32;;;;;;;0.40;0.30;;;;;;;26.60;27.85;94414.88;5038123;28;20438;-58
2023/04/02 12:01:28;;;;;;;0.30;0.30;;;;;;;27.41;26.16;94409.94;5132268;27;20950;-57
2023/04/02 12:04:33;;;;;;;0.40;0.37;;;;;;;28.45;25.27;94400.59;5132981;27;20431;-57
2023/04/02 12:07:25;;;;;;;0.40;0.30;;;;;;;27.68;25.94;94396.53;5133274;27;20442;-58